首页
METAR-TAF:

METAR-TAF

机场 :

路易斯·穆尼奥斯·马林国际机场

圣胡安, 波多黎哥, 美国

纬度: 18-27N, 经度: 066-00W, 海拔: 3米

当前天气观测

该预报发布于17分钟前的22:56 UTC
风速6节,风向
温度 26°C
湿度 84%
气压 1018 hPa
能見度: 16.1公里
少量云层高于3600英尺
散云层高于7500英尺
多云层高于12000英尺

METAR: TJSJ 232256Z 10006KT 10SM FEW036 SCT075 BKN120 26/23 A3005 RMK AO2 SLP176 T02560233 $

时间: 19:13 (23:13 UTC)

预报

该预报发布于5小时和37分钟前的17:36 UTC
预报有效从23日的 18点(UTC)到 24日的 18点(UTC)
风速5节,风向多变
能見度: 9.7公里
散云层高于2000英尺
多云层高于3500英尺
阴天层高于4000英尺
小雨
从 23日的 1930点(UTC)
风速7节,风向东转东北
能見度: 10公里
散云层高于2500英尺, 积雨云.
多云层高于5000英尺
多云层高于10000英尺
小雨, 附近有雷暴
从 23日的 2200点(UTC)
风速6节,风向
能見度: 10公里
散云层高于2800英尺
多云层高于5000英尺
附近有阵雨
从 24日的 0800点(UTC)
风速8节,风向
能見度: 10公里
散云层高于2500英尺
多云层高于4000英尺
小雨
从 24日的 1430点(UTC)
风速16节,风向,有时为24节阵风
能見度: 10公里
散云层高于2800英尺
多云层高于5000英尺
阵雨

TAF: TJSJ 231736Z 2318/2418 VRB05KT 6SM -RA SCT020 BKN035 OVC040 FM231930 06007KT P6SM -RA VCTS SCT025CB BKN050 BKN100 FM232200 10006KT P6SM VCSH SCT028 BKN050 FM240800 09008KT P6SM -RA SCT025 BKN040 FM241430 08016G24KT P6SM SHRA SCT028 BKN050

超过4000个机场的气象观测和天气预报(METAR&TAF报告)。

可查询的气象台以黄色和红色小点在地图上表示。

将鼠标移到小点上方,可查看气象台名称。

然后点击查看天气观测和预报。

如需切换地图:点击带黑十字的绿色按钮放大地图;点击带横线的绿色按钮缩小地图;或者点击绿色箭头查看邻近地区的地图。


METAR-TAF: